DAL2496 KMYR-KMCO
Flight info
| Callsign | DAL2496 |
|---|---|
| Flight time | 0h 58m |
| Altitude | 32000 |
| Route | CHS IGARY Q85 LPERD GTOUT1 |
| Aircraft | A319/M-SDE3FGHIRWY/LB1 |
Departure
| Time | 2026-04-22 23:04 |
|---|---|
| Airport | Myrtle Beach International Airport (KMYR) |
Arrival
| Time | 2026-04-23 00:03 |
|---|---|
| Airport | Orlando International Airport (KMCO) |
| Time | Latitude | Longitude | Altitude | Speed | Heading |
|---|---|---|---|---|---|
| 2026-04-22 22:31 | 33.68327 | -78.92425 | 32 ft | 0 kts | 122° |
| 2026-04-22 22:57 | 33.68335 | -78.92440 | 32 ft | 4 kts | 125° |
| 2026-04-22 22:57 | 33.68352 | -78.92465 | 27 ft | 4 kts | 142° |
| 2026-04-22 22:57 | 33.68372 | -78.92477 | 31 ft | 4 kts | 199° |
| 2026-04-22 22:57 | 33.68380 | -78.92472 | 30 ft | 0 kts | 229° |
| 2026-04-22 23:00 | 33.68373 | -78.92482 | 32 ft | 4 kts | 229° |
| 2026-04-22 23:00 | 33.68341 | -78.92525 | 32 ft | 10 kts | 227° |
| 2026-04-22 23:00 | 33.68262 | -78.92550 | 32 ft | 15 kts | 174° |
| 2026-04-22 23:00 | 33.68172 | -78.92601 | 32 ft | 17 kts | 256° |
| 2026-04-22 23:01 | 33.68232 | -78.92690 | 32 ft | 17 kts | 350° |
| 2026-04-22 23:01 | 33.68347 | -78.92720 | 32 ft | 17 kts | 347° |
| 2026-04-22 23:01 | 33.68462 | -78.92749 | 32 ft | 17 kts | 352° |
| 2026-04-22 23:01 | 33.68581 | -78.92774 | 32 ft | 18 kts | 345° |
| 2026-04-22 23:02 | 33.68701 | -78.92808 | 32 ft | 18 kts | 349° |
| 2026-04-22 23:02 | 33.68823 | -78.92837 | 32 ft | 18 kts | 348° |
| 2026-04-22 23:02 | 33.68948 | -78.92858 | 32 ft | 18 kts | 2° |
| 2026-04-22 23:02 | 33.69076 | -78.92860 | 32 ft | 18 kts | 351° |
| 2026-04-22 23:03 | 33.69202 | -78.92886 | 32 ft | 19 kts | 348° |
| 2026-04-22 23:03 | 33.69267 | -78.92983 | 32 ft | 18 kts | 257° |
| 2026-04-22 23:03 | 33.69239 | -78.93122 | 33 ft | 13 kts | 249° |
| 2026-04-22 23:03 | 33.69154 | -78.93127 | 34 ft | 21 kts | 166° |
| 2026-04-22 23:04 | 33.68794 | -78.93037 | 33 ft | 90 kts | 168° |
| 2026-04-22 23:04 | 33.67964 | -78.92834 | 51 ft | 148 kts | 171° |
| 2026-04-22 23:04 | 33.66904 | -78.92598 | 509 ft | 161 kts | 172° |
| 2026-04-22 23:04 | 33.65761 | -78.92402 | 1078 ft | 170 kts | 183° |
| 2026-04-22 23:05 | 33.64551 | -78.92612 | 1582 ft | 185 kts | 194° |
| 2026-04-22 23:05 | 33.63249 | -78.93107 | 1929 ft | 210 kts | 208° |
| 2026-04-22 23:05 | 33.62028 | -78.94187 | 2468 ft | 231 kts | 227° |
| 2026-04-22 23:05 | 33.60971 | -78.95738 | 3217 ft | 246 kts | 233° |
| 2026-04-22 23:06 | 33.59905 | -78.97374 | 4156 ft | 252 kts | 234° |
| 2026-04-22 23:06 | 33.58819 | -78.99040 | 5184 ft | 256 kts | 234° |
| 2026-04-22 23:06 | 33.57712 | -79.00734 | 6164 ft | 260 kts | 235° |
| 2026-04-22 23:06 | 33.56586 | -79.02456 | 7114 ft | 264 kts | 234° |
| 2026-04-22 23:07 | 33.55439 | -79.04210 | 8019 ft | 270 kts | 234° |
| 2026-04-22 23:07 | 33.54275 | -79.05990 | 8989 ft | 273 kts | 235° |
| 2026-04-22 23:07 | 33.53097 | -79.07791 | 9961 ft | 276 kts | 234° |
| 2026-04-22 23:07 | 33.51896 | -79.09628 | 10491 ft | 295 kts | 234° |
| 2026-04-22 23:08 | 33.50579 | -79.11643 | 10803 ft | 319 kts | 234° |
| 2026-04-22 23:08 | 33.49161 | -79.13809 | 11126 ft | 340 kts | 234° |
| 2026-04-22 23:08 | 33.47682 | -79.16065 | 11768 ft | 348 kts | 234° |
| 2026-04-22 23:08 | 33.46175 | -79.18356 | 12532 ft | 352 kts | 234° |
| 2026-04-22 23:09 | 33.44649 | -79.20673 | 13310 ft | 356 kts | 234° |
| 2026-04-22 23:09 | 33.43105 | -79.23017 | 14046 ft | 361 kts | 234° |
| 2026-04-22 23:09 | 33.41541 | -79.25392 | 14718 ft | 365 kts | 234° |
| 2026-04-22 23:09 | 33.39979 | -79.27766 | 15343 ft | 371 kts | 234° |
| 2026-04-22 23:10 | 33.38378 | -79.30204 | 15960 ft | 376 kts | 234° |
| 2026-04-22 23:10 | 33.36750 | -79.32680 | 16592 ft | 381 kts | 234° |
| 2026-04-22 23:10 | 33.35097 | -79.35189 | 17194 ft | 387 kts | 234° |
| 2026-04-22 23:10 | 33.33417 | -79.37733 | 17800 ft | 392 kts | 234° |
| 2026-04-22 23:11 | 33.31712 | -79.40310 | 18410 ft | 398 kts | 234° |
| 2026-04-22 23:11 | 33.29985 | -79.42920 | 18949 ft | 402 kts | 233° |
| 2026-04-22 23:11 | 33.28241 | -79.45556 | 19518 ft | 406 kts | 234° |
| 2026-04-22 23:11 | 33.26507 | -79.48177 | 20087 ft | 409 kts | 234° |
| 2026-04-22 23:12 | 33.24736 | -79.50850 | 20648 ft | 412 kts | 234° |
| 2026-04-22 23:12 | 33.22958 | -79.53535 | 21208 ft | 414 kts | 233° |
| 2026-04-22 23:12 | 33.21166 | -79.56239 | 21764 ft | 416 kts | 234° |
| 2026-04-22 23:12 | 33.19358 | -79.58966 | 22277 ft | 419 kts | 233° |
| 2026-04-22 23:13 | 33.17544 | -79.61698 | 22798 ft | 422 kts | 233° |
| 2026-04-22 23:13 | 33.15714 | -79.64453 | 23292 ft | 425 kts | 233° |
| 2026-04-22 23:13 | 33.13870 | -79.67227 | 23779 ft | 428 kts | 233° |
| 2026-04-22 23:13 | 33.12040 | -79.69977 | 24180 ft | 430 kts | 234° |
| 2026-04-22 23:14 | 33.10175 | -79.72776 | 24593 ft | 432 kts | 233° |
| 2026-04-22 23:14 | 33.08303 | -79.75587 | 25004 ft | 434 kts | 233° |
| 2026-04-22 23:14 | 33.06422 | -79.78408 | 25419 ft | 435 kts | 233° |
| 2026-04-22 23:14 | 33.04533 | -79.81239 | 25822 ft | 438 kts | 233° |
| 2026-04-22 23:15 | 33.02636 | -79.84079 | 26198 ft | 440 kts | 233° |
| 2026-04-22 23:15 | 33.00720 | -79.86943 | 26587 ft | 442 kts | 233° |
| 2026-04-22 23:15 | 32.98805 | -79.89806 | 26971 ft | 444 kts | 233° |
| 2026-04-22 23:15 | 32.96876 | -79.92685 | 27349 ft | 445 kts | 233° |
| 2026-04-22 23:16 | 32.94965 | -79.95534 | 27710 ft | 447 kts | 233° |
| 2026-04-22 23:16 | 32.93018 | -79.98433 | 28065 ft | 449 kts | 234° |
| 2026-04-22 23:16 | 32.91062 | -80.01343 | 28413 ft | 451 kts | 234° |
| 2026-04-22 23:16 | 32.89008 | -80.04180 | 28756 ft | 455 kts | 228° |
| 2026-04-22 23:17 | 32.86676 | -80.06742 | 29151 ft | 457 kts | 225° |
| 2026-04-22 23:17 | 32.84321 | -80.09272 | 29616 ft | 456 kts | 225° |
| 2026-04-22 23:17 | 32.81973 | -80.11794 | 30111 ft | 454 kts | 225° |
| 2026-04-22 23:17 | 32.79664 | -80.14273 | 30551 ft | 453 kts | 225° |
| 2026-04-22 23:18 | 32.77329 | -80.16781 | 30931 ft | 452 kts | 225° |
| 2026-04-22 23:18 | 32.74997 | -80.19285 | 31273 ft | 453 kts | 225° |
| 2026-04-22 23:18 | 32.72661 | -80.21790 | 31670 ft | 452 kts | 225° |
| 2026-04-22 23:18 | 32.70324 | -80.24295 | 31953 ft | 453 kts | 225° |
| 2026-04-22 23:19 | 32.65630 | -80.29328 | 32020 ft | 456 kts | 225° |
| 2026-04-22 23:19 | 32.60944 | -80.34330 | 32017 ft | 456 kts | 225° |
| 2026-04-22 23:20 | 32.55928 | -80.38950 | 32018 ft | 461 kts | 213° |
| 2026-04-22 23:20 | 32.50351 | -80.42716 | 32016 ft | 459 kts | 213° |
| 2026-04-22 23:21 | 32.44815 | -80.46445 | 32023 ft | 457 kts | 213° |
| 2026-04-22 23:21 | 32.39289 | -80.50164 | 32023 ft | 457 kts | 213° |
| 2026-04-22 23:22 | 32.33810 | -80.53855 | 32011 ft | 456 kts | 213° |
| 2026-04-22 23:22 | 32.28286 | -80.57577 | 32002 ft | 457 kts | 212° |
| 2026-04-22 23:23 | 32.22756 | -80.61289 | 31995 ft | 457 kts | 212° |
| 2026-04-22 23:23 | 32.17230 | -80.64991 | 32024 ft | 456 kts | 212° |
| 2026-04-22 23:24 | 32.11751 | -80.68652 | 32026 ft | 456 kts | 212° |
| 2026-04-22 23:24 | 32.06231 | -80.72341 | 32020 ft | 456 kts | 212° |
| 2026-04-22 23:25 | 32.00711 | -80.76025 | 32000 ft | 456 kts | 212° |
| 2026-04-22 23:25 | 31.95235 | -80.79679 | 32009 ft | 455 kts | 212° |
| 2026-04-22 23:26 | 31.89730 | -80.83346 | 31999 ft | 455 kts | 212° |
| 2026-04-22 23:26 | 31.86979 | -80.85175 | 32142 ft | 454 kts | 212° |
| 2026-04-22 23:26 | 31.84226 | -80.87005 | 32185 ft | 455 kts | 212° |
| 2026-04-22 23:27 | 31.78718 | -80.90664 | 32188 ft | 455 kts | 212° |
| 2026-04-22 23:27 | 31.73233 | -80.94296 | 32187 ft | 456 kts | 212° |
| 2026-04-22 23:28 | 31.67715 | -80.97945 | 32193 ft | 455 kts | 212° |
| 2026-04-22 23:28 | 31.62196 | -81.01598 | 32199 ft | 455 kts | 212° |
| 2026-04-22 23:29 | 31.56663 | -81.05230 | 32197 ft | 456 kts | 211° |
| 2026-04-22 23:29 | 31.51089 | -81.08674 | 32200 ft | 456 kts | 210° |
| 2026-04-22 23:30 | 31.45438 | -81.12054 | 32196 ft | 456 kts | 210° |
| 2026-04-22 23:30 | 31.39807 | -81.15455 | 32205 ft | 455 kts | 210° |
| 2026-04-22 23:31 | 31.34195 | -81.18870 | 32204 ft | 455 kts | 210° |
| 2026-04-22 23:31 | 31.28596 | -81.22201 | 32191 ft | 454 kts | 210° |
| 2026-04-22 23:32 | 31.22953 | -81.25524 | 32183 ft | 454 kts | 210° |
| 2026-04-22 23:32 | 31.16956 | -81.27909 | 32191 ft | 460 kts | 193° |
| 2026-04-22 23:33 | 31.10523 | -81.28258 | 32193 ft | 464 kts | 184° |
| 2026-04-22 23:33 | 31.04106 | -81.28221 | 32199 ft | 464 kts | 183° |
| 2026-04-22 23:34 | 30.97662 | -81.28202 | 32197 ft | 463 kts | 184° |
| 2026-04-22 23:34 | 30.91218 | -81.28190 | 32194 ft | 463 kts | 184° |
| 2026-04-22 23:35 | 30.84783 | -81.28179 | 32197 ft | 462 kts | 184° |
| 2026-04-22 23:35 | 30.78397 | -81.28164 | 32198 ft | 462 kts | 184° |
| 2026-04-22 23:36 | 30.71965 | -81.28140 | 32202 ft | 462 kts | 184° |
| 2026-04-22 23:36 | 30.65539 | -81.28125 | 32186 ft | 462 kts | 185° |
| 2026-04-22 23:37 | 30.59117 | -81.28097 | 32197 ft | 462 kts | 184° |
| 2026-04-22 23:37 | 30.52728 | -81.27720 | 32198 ft | 463 kts | 181° |
| 2026-04-22 23:38 | 30.46299 | -81.27119 | 32195 ft | 463 kts | 181° |
| 2026-04-22 23:38 | 30.39871 | -81.26558 | 32018 ft | 464 kts | 181° |
| 2026-04-22 23:39 | 30.36660 | -81.26308 | 31768 ft | 464 kts | 181° |
| 2026-04-22 23:39 | 30.33439 | -81.26069 | 31521 ft | 464 kts | 181° |
| 2026-04-22 23:39 | 30.30215 | -81.25838 | 31277 ft | 464 kts | 181° |
| 2026-04-22 23:39 | 30.26988 | -81.25610 | 31035 ft | 465 kts | 181° |
| 2026-04-22 23:40 | 30.23800 | -81.25381 | 30793 ft | 465 kts | 181° |
| 2026-04-22 23:40 | 30.20566 | -81.25141 | 30559 ft | 466 kts | 181° |
| 2026-04-22 23:40 | 30.17329 | -81.24897 | 30338 ft | 466 kts | 181° |
| 2026-04-22 23:40 | 30.14089 | -81.24651 | 30064 ft | 467 kts | 180° |
| 2026-04-22 23:41 | 30.10846 | -81.24405 | 29781 ft | 467 kts | 180° |
| 2026-04-22 23:41 | 30.07598 | -81.24164 | 29494 ft | 468 kts | 181° |
| 2026-04-22 23:41 | 30.04346 | -81.23925 | 29221 ft | 469 kts | 181° |
| 2026-04-22 23:41 | 30.01133 | -81.23686 | 28956 ft | 469 kts | 181° |
| 2026-04-22 23:42 | 29.97828 | -81.23439 | 28684 ft | 470 kts | 181° |
| 2026-04-22 23:42 | 29.94613 | -81.23199 | 28422 ft | 471 kts | 181° |
| 2026-04-22 23:42 | 29.91343 | -81.22958 | 28162 ft | 471 kts | 181° |
| 2026-04-22 23:42 | 29.88067 | -81.22717 | 27899 ft | 472 kts | 181° |
| 2026-04-22 23:43 | 29.84787 | -81.22474 | 27642 ft | 473 kts | 181° |
| 2026-04-22 23:43 | 29.81502 | -81.22228 | 27370 ft | 474 kts | 181° |
| 2026-04-22 23:43 | 29.78208 | -81.21981 | 27127 ft | 475 kts | 181° |
| 2026-04-22 23:43 | 29.74946 | -81.21737 | 26873 ft | 476 kts | 180° |
| 2026-04-22 23:44 | 29.71642 | -81.21492 | 26632 ft | 477 kts | 180° |
| 2026-04-22 23:44 | 29.68336 | -81.21245 | 25950 ft | 475 kts | 180° |
| 2026-04-22 23:44 | 29.65029 | -81.20979 | 24749 ft | 477 kts | 179° |
| 2026-04-22 23:44 | 29.61712 | -81.20693 | 23556 ft | 479 kts | 179° |
| 2026-04-22 23:45 | 29.58388 | -81.20395 | 22203 ft | 480 kts | 179° |
| 2026-04-22 23:45 | 29.55070 | -81.20090 | 21242 ft | 474 kts | 178° |
| 2026-04-22 23:45 | 29.51814 | -81.19793 | 20392 ft | 467 kts | 179° |
| 2026-04-22 23:45 | 29.48598 | -81.19507 | 19520 ft | 461 kts | 179° |
| 2026-04-22 23:46 | 29.45422 | -81.19232 | 18703 ft | 455 kts | 179° |
| 2026-04-22 23:46 | 29.42326 | -81.18971 | 17955 ft | 448 kts | 179° |
| 2026-04-22 23:46 | 29.39288 | -81.18714 | 17785 ft | 427 kts | 179° |
| 2026-04-22 23:46 | 29.36384 | -81.18466 | 17653 ft | 410 kts | 179° |
| 2026-04-22 23:47 | 29.33591 | -81.18229 | 17520 ft | 395 kts | 179° |
| 2026-04-22 23:47 | 29.30902 | -81.17999 | 17389 ft | 380 kts | 179° |
| 2026-04-22 23:47 | 29.28304 | -81.17779 | 17084 ft | 370 kts | 179° |
| 2026-04-22 23:47 | 29.25751 | -81.17563 | 16645 ft | 366 kts | 178° |
| 2026-04-22 23:48 | 29.23269 | -81.17350 | 16034 ft | 360 kts | 178° |
| 2026-04-22 23:48 | 29.20787 | -81.17132 | 15384 ft | 356 kts | 178° |
| 2026-04-22 23:48 | 29.18342 | -81.16704 | 14761 ft | 354 kts | 167° |
| 2026-04-22 23:48 | 29.16026 | -81.15782 | 14150 ft | 352 kts | 161° |
| 2026-04-22 23:49 | 29.13749 | -81.14803 | 13491 ft | 347 kts | 162° |
| 2026-04-22 23:49 | 29.11502 | -81.13843 | 12889 ft | 341 kts | 161° |
| 2026-04-22 23:49 | 29.09337 | -81.12920 | 12733 ft | 322 kts | 161° |
| 2026-04-22 23:49 | 29.07296 | -81.12049 | 12526 ft | 307 kts | 160° |
| 2026-04-22 23:50 | 29.05316 | -81.11205 | 12115 ft | 301 kts | 161° |
| 2026-04-22 23:50 | 29.03402 | -81.10402 | 11728 ft | 294 kts | 162° |
| 2026-04-22 23:50 | 29.01486 | -81.09656 | 11539 ft | 290 kts | 163° |
| 2026-04-22 23:50 | 28.99574 | -81.08941 | 11301 ft | 289 kts | 162° |
| 2026-04-22 23:51 | 28.97654 | -81.08259 | 11043 ft | 288 kts | 167° |
| 2026-04-22 23:51 | 28.95680 | -81.07946 | 10636 ft | 288 kts | 174° |
| 2026-04-22 23:51 | 28.93682 | -81.07726 | 10190 ft | 290 kts | 173° |
| 2026-04-22 23:51 | 28.91710 | -81.07499 | 10025 ft | 280 kts | 173° |
| 2026-04-22 23:52 | 28.89799 | -81.07331 | 9796 ft | 273 kts | 180° |
| 2026-04-22 23:52 | 28.87937 | -81.07679 | 9456 ft | 271 kts | 196° |
| 2026-04-22 23:52 | 28.86263 | -81.08602 | 9098 ft | 272 kts | 212° |
| 2026-04-22 23:52 | 28.84737 | -81.09827 | 8901 ft | 262 kts | 214° |
| 2026-04-22 23:53 | 28.83288 | -81.10985 | 8734 ft | 248 kts | 213° |
| 2026-04-22 23:53 | 28.81857 | -81.12117 | 8218 ft | 249 kts | 213° |
| 2026-04-22 23:53 | 28.80466 | -81.13213 | 7975 ft | 239 kts | 213° |
| 2026-04-22 23:53 | 28.79107 | -81.14285 | 7590 ft | 236 kts | 214° |
| 2026-04-22 23:54 | 28.77763 | -81.15350 | 7186 ft | 235 kts | 214° |
| 2026-04-22 23:54 | 28.76568 | -81.16589 | 6986 ft | 234 kts | 237° |
| 2026-04-22 23:54 | 28.76004 | -81.18299 | 6771 ft | 235 kts | 256° |
| 2026-04-22 23:54 | 28.75434 | -81.20041 | 6427 ft | 235 kts | 247° |
| 2026-04-22 23:55 | 28.74789 | -81.21753 | 6083 ft | 235 kts | 246° |
| 2026-04-22 23:55 | 28.74136 | -81.23453 | 5775 ft | 233 kts | 245° |
| 2026-04-22 23:55 | 28.73476 | -81.25142 | 5488 ft | 231 kts | 245° |
| 2026-04-22 23:55 | 28.72830 | -81.26780 | 5289 ft | 225 kts | 244° |
| 2026-04-22 23:56 | 28.72189 | -81.28383 | 5112 ft | 217 kts | 243° |
| 2026-04-22 23:56 | 28.71572 | -81.29924 | 4863 ft | 212 kts | 242° |
| 2026-04-22 23:56 | 28.70850 | -81.31375 | 4549 ft | 209 kts | 227° |
| 2026-04-22 23:56 | 28.69771 | -81.32405 | 4240 ft | 204 kts | 206° |
| 2026-04-22 23:57 | 28.68478 | -81.32898 | 4112 ft | 191 kts | 185° |
| 2026-04-22 23:57 | 28.67173 | -81.32939 | 4030 ft | 186 kts | 176° |
| 2026-04-22 23:57 | 28.65883 | -81.32925 | 3990 ft | 185 kts | 175° |
| 2026-04-22 23:57 | 28.64589 | -81.32911 | 3870 ft | 187 kts | 175° |
| 2026-04-22 23:58 | 28.63289 | -81.32897 | 3659 ft | 186 kts | 175° |
| 2026-04-22 23:58 | 28.61997 | -81.32883 | 3423 ft | 186 kts | 175° |
| 2026-04-22 23:58 | 28.60711 | -81.32869 | 3182 ft | 184 kts | 175° |
| 2026-04-22 23:58 | 28.59448 | -81.32856 | 2938 ft | 183 kts | 174° |
| 2026-04-22 23:59 | 28.58176 | -81.32843 | 2706 ft | 174 kts | 175° |
| 2026-04-22 23:59 | 28.57037 | -81.32832 | 2490 ft | 156 kts | 175° |
| 2026-04-22 23:59 | 28.56006 | -81.32822 | 2288 ft | 143 kts | 174° |
| 2026-04-22 23:59 | 28.55036 | -81.32810 | 2105 ft | 137 kts | 175° |
| 2026-04-23 00:00 | 28.53147 | -81.32788 | 1740 ft | 135 kts | 174° |
| 2026-04-23 00:00 | 28.52528 | -81.32781 | 1626 ft | 134 kts | 174° |
| 2026-04-23 00:00 | 28.51296 | -81.32768 | 1390 ft | 134 kts | 174° |
| 2026-04-23 00:01 | 28.50363 | -81.32757 | 1211 ft | 135 kts | 173° |
| 2026-04-23 00:01 | 28.49439 | -81.32748 | 1037 ft | 131 kts | 174° |
| 2026-04-23 00:01 | 28.48531 | -81.32737 | 866 ft | 136 kts | 173° |
| 2026-04-23 00:01 | 28.47591 | -81.32728 | 688 ft | 134 kts | 176° |
| 2026-04-23 00:02 | 28.46655 | -81.32722 | 523 ft | 135 kts | 175° |
| 2026-04-23 00:02 | 28.45732 | -81.32715 | 320 ft | 134 kts | 174° |
| 2026-04-23 00:02 | 28.44799 | -81.32699 | 161 ft | 134 kts | 173° |
| 2026-04-23 00:02 | 28.43921 | -81.32680 | 102 ft | 109 kts | 178° |
| 2026-04-23 00:03 | 28.43335 | -81.32680 | 110 ft | 60 kts | 180° |
| 2026-04-23 00:03 | 28.43024 | -81.32678 | 107 ft | 40 kts | 179° |
| 2026-04-23 00:03 | 28.42758 | -81.32672 | 104 ft | 37 kts | 178° |
| 2026-04-23 00:03 | 28.42587 | -81.32548 | 105 ft | 28 kts | 123° |
| 2026-04-23 00:04 | 28.42497 | -81.32362 | 107 ft | 26 kts | 120° |
| 2026-04-23 00:04 | 28.42410 | -81.32193 | 111 ft | 23 kts | 121° |
| 2026-04-23 00:04 | 28.42345 | -81.32035 | 110 ft | 22 kts | 95° |
| 2026-04-23 00:04 | 28.42349 | -81.31852 | 108 ft | 24 kts | 88° |
| 2026-04-23 00:05 | 28.42346 | -81.31670 | 104 ft | 21 kts | 91° |
| 2026-04-23 00:05 | 28.42347 | -81.31495 | 102 ft | 23 kts | 89° |
| 2026-04-23 00:05 | 28.42349 | -81.31308 | 100 ft | 24 kts | 90° |
| 2026-04-23 00:05 | 28.42330 | -81.31118 | 100 ft | 25 kts | 101° |
| 2026-04-23 00:06 | 28.42319 | -81.30928 | 100 ft | 25 kts | 88° |
| 2026-04-23 00:06 | 28.42333 | -81.30740 | 106 ft | 22 kts | 84° |
| 2026-04-23 00:06 | 28.42345 | -81.30565 | 105 ft | 22 kts | 86° |
| 2026-04-23 00:06 | 28.42356 | -81.30380 | 101 ft | 25 kts | 86° |
| 2026-04-23 00:07 | 28.42360 | -81.30186 | 103 ft | 24 kts | 89° |
| 2026-04-23 00:07 | 28.42363 | -81.29996 | 104 ft | 24 kts | 89° |
| 2026-04-23 00:07 | 28.42376 | -81.29819 | 103 ft | 18 kts | 55° |
| 2026-04-23 00:07 | 28.42499 | -81.29795 | 103 ft | 19 kts | 0° |
| 2026-04-23 00:08 | 28.42633 | -81.29796 | 103 ft | 20 kts | 357° |
| 2026-04-23 00:08 | 28.42742 | -81.29796 | 103 ft | 11 kts | 359° |
| 2026-04-23 00:08 | 28.42765 | -81.29797 | 103 ft | 0 kts | 358° |
| 2026-04-23 00:10 | 28.42771 | -81.29797 | 103 ft | 3 kts | 358° |
| 2026-04-23 00:10 | 28.42807 | -81.29799 | 103 ft | 7 kts | 358° |
| 2026-04-23 00:10 | 28.42859 | -81.29800 | 103 ft | 8 kts | 358° |
| 2026-04-23 00:11 | 28.42909 | -81.29830 | 102 ft | 10 kts | 292° |
| 2026-04-23 00:11 | 28.42927 | -81.29906 | 103 ft | 10 kts | 294° |
| 2026-04-23 00:11 | 28.42963 | -81.29978 | 103 ft | 11 kts | 297° |
| 2026-04-23 00:11 | 28.42974 | -81.30063 | 103 ft | 11 kts | 262° |
| 2026-04-23 00:12 | 28.42945 | -81.30127 | 103 ft | 7 kts | 207° |
| 2026-04-23 00:12 | 28.42907 | -81.30106 | 103 ft | 7 kts | 146° |
| 2026-04-23 00:12 | 28.42883 | -81.30088 | 103 ft | 3 kts | 147° |
| 2026-04-23 00:12 | 28.42876 | -81.30083 | 103 ft | 0 kts | 147° |